KSBP/SBP METAR and TAF weather

Enter ICAO airport designator
Station Type Date Time Source
KSBP METAR 2018/12/10 07:56 UTC NOAA

KSBP 100756Z AUTO 13004KT 10SM CLR 10/08 A3018 RMK AO2 SLP218 T01000083 402060044 $


Station Type Date Time Source
KSBP Decoded METAR 2018/12/10 07:56 UTC NOAA

SAN LUIS OBISPO MC CHESNEY, CA, United States (KSBP) 35-14N 120-38W 59M
Dec 10, 2018 - 02:56 AM EST / 2018.12.10 0756 UTC
Wind: from the SE (130 degrees) at 5 MPH (4 KT):0
Visibility: 10 mile(s):0
Sky conditions: clear
Temperature: 50.0 F (10.0 C)
Dew Point: 46.9 F (8.3 C)
Relative Humidity: 89%
Pressure (altimeter): 30.18 in. Hg (1022 hPa)
ob: KSBP 100756Z AUTO 13004KT 10SM CLR 10/08 A3018 RMK AO2 SLP218 T01000083 402060044
cycle: 8

Station Type Date Time Source
KSBP TAF 2018/12/10 06:24 UTC NOAA

TAF KSBP 100523Z 1006/1106 VRB03KT P6SM BKN250
FM102200 36012KT P6SM SCT250
FM110200 VRB03KT P6SM SCT250


Example: see airport list